Bozeman, MT

8:40 AM MDT on September 01, 2015 (GMT -0600)
Bon-Ton | | Change Station
CLOSE
Current Station
Personal Weather Station
Location: Bozeman, MT
Elevation: 4884 ft
Nearby Weather Stations
Active Advisory: Fire Weather Warning

Elev 4884 ft 45.67 °N, 111.04 °W | Updated 20 seconds ago

Clear
Clear
54.0 °F
Feels Like 54.0 °F
N
0.0
Wind Variable Wind from ESE
Gusts 1.0 mph

Today
High -- | Low -- °F
--% Chance of Precip.
Yesterday
High -- | Low -- °F
Precip. -- in
6:45 AM 8:02 PM
Waning Gibbous, 88% visible
Pressure 29.91 in
Visibility 10.0 miles
Clouds Clear
Dew Point 40 °F
Humidity 59%
Rainfall 0.00 in
Snow Depth Not available.
UV 1.1 out of 12
Pollen 7.90 out of 12
Air Quality Not available.
Flu Activity Not available.
METAR KBZN 011356Z 14004KT 10SM CLR 08/04 A2998 RMK AO2 SLP128 T00830044
Pressure 29.91 in
Visibility 10.0 miles
Clouds Clear
Dew Point 40 °F
Humidity 59%
Rainfall 0.00 in
Snow Depth Not available.
UV 1.1 out of 12
Pollen 7.90 out of 12
Air Quality Not available.
Flu Activity Not available.
METAR KBZN 011356Z 14004KT 10SM CLR 08/04 A2998 RMK AO2 SLP128 T00830044

10-Day Weather Forecast

×

Almanac

Astronomy

Sep. 01, 2015 Rise Set
Actual Time
Civil Twilight
Nautical Twilight
Astronomical Twilight
Moon
Length of Visible Light
Length of Day
Tomorrow will be .
, % of the Moon is Illuminated

Today's Extremes

State Highs State Lows

Community

WunderPhotos

Upload Photos

1,851,513 photos uploaded!

WunderBlogs® & News

Nearby

Air Quality

  Air Quality AQ Index Pollutant
Not available.

Snow Depth

Station Depth Elevation

Earthquake Activity

City Distance Mag. Time & Date
Minimum magnitude displayed is 2.5.

Coastal Water Temperatures

Place Temperature

Stations

Nearby Weather Stations

Station Location Temp. Windchill Dew Point Humidity Wind Precip. Elev Updated Type
                   
Fire Weather Warning
Statement as of 3:10 AM MDT on September 01, 2015

... Red flag warning in effect from noon Wednesday to midnight MDT
Wednesday night...

The National Weather Service in Billings has issued a red flag
warning... which is in effect from noon Wednesday to midnight MDT
Wednesday night.

* Impacts: low humidities... hot temperatures... and strong gusty
winds will create critical fire weather conditions.

* Affected area: in south central Mt... fire weather zones
123... 124... 125 and 126.

* Counties affected:
   in central Mt... Wheatland.
   In south central Mt... Carbon... park... Stillwater... Sweet Grass.
   In southwest Mt... Gallatin.

* Wind: southwest 15 to 25 mph with gusts up to 35 mph.

* Humidity: lower to middle teens.

* Temperatures: around 90.

Precautionary/preparedness actions...

Be very careful with any open flames. Check with local officials
before conducting any burning.